Time;durP1;ratioP1;P1;durP2;ratioP2;P2;SDS_P1;SDS_P2;PMS_P1;PMS_P2;Temp;Humidity;BMP_temperature;BMP_pressure;BME280_temperature;BME280_humidity;BME280_pressure;Samples;Min_cycle;Max_cycle;Signal;HPM_P1;HPM_P2
2023/09/05 00:02:22;;;;;;;;;;;120.61;114.10;;;;;;2673779;76;20474;-89
2023/09/05 00:05:50;;;;;;;;;;;120.61;114.10;;;;;;2673744;76;20327;-89
2023/09/05 00:09:18;;;;;;;;;;;120.61;114.10;;;;;;2672726;76;20334;-89
2023/09/05 00:12:51;;;;;;;;;;;120.61;114.10;;;;;;2673385;76;20371;-89
2023/09/05 00:16:16;;;;;;;;;;;120.61;114.10;;;;;;2673025;76;20437;-89
2023/09/05 00:19:44;;;;;;;;;;;120.61;114.10;;;;;;2673306;76;20464;-89
2023/09/05 00:23:12;;;;;;;;;;;120.61;114.10;;;;;;2672837;76;20494;-88
2023/09/05 00:26:43;;;;;;;;;;;120.61;114.10;;;;;;2672859;76;20437;-89
2023/09/05 00:30:13;;;;;;;;;;;120.61;114.10;;;;;;2673244;76;20483;-89
2023/09/05 00:33:40;;;;;;;;;;;120.61;114.10;;;;;;2673339;76;20536;-89
2023/09/05 00:37:08;;;;;;;;;;;120.61;114.10;;;;;;2673221;76;20469;-90
2023/09/05 00:40:36;;;;;;;;;;;120.61;114.10;;;;;;2673167;76;20973;-89
2023/09/05 00:44:04;;;;;;;;;;;120.61;114.10;;;;;;2672798;76;20490;-89
2023/09/05 00:47:32;;;;;;;;;;;120.61;114.10;;;;;;2673031;76;20508;-88
2023/09/05 00:51:01;;;;;;;;;;;120.61;114.10;;;;;;2672966;76;20450;-88
2023/09/05 00:54:29;;;;;;;;;;;120.61;114.10;;;;;;2672546;76;20417;-88
2023/09/05 00:58:00;;;;;;;;;;;120.61;114.10;;;;;;2672647;76;20508;-89
2023/09/05 01:01:28;;;;;;;;;;;120.61;114.10;;;;;;2672231;76;20471;-88
2023/09/05 01:04:56;;;;;;;;;;;120.61;114.10;;;;;;2673137;76;20357;-89
2023/09/05 01:08:24;;;;;;;;;;;120.61;114.10;;;;;;2672804;76;20355;-89
2023/09/05 01:11:52;;;;;;;;;;;120.61;114.10;;;;;;2672649;76;20477;-88
2023/09/05 01:15:21;;;;;;;;;;;120.61;114.10;;;;;;2673108;76;20429;-89
2023/09/05 01:18:49;;;;;;;;;;;120.61;114.10;;;;;;2673060;76;20375;-89
2023/09/05 01:22:17;;;;;;;;;;;120.61;114.10;;;;;;2673518;76;20438;-89
2023/09/05 01:25:45;;;;;;;;;;;120.61;114.10;;;;;;2673560;76;20371;-89
2023/09/05 01:29:26;;;;;;;;;;;120.61;114.10;;;;;;2672911;76;22115;-89
2023/09/05 01:32:44;;;;;;;;;;;120.61;114.10;;;;;;2673021;76;21409;-89
2023/09/05 01:36:14;;;;;;;;;;;120.61;114.10;;;;;;2673146;76;20472;-89
2023/09/05 01:39:42;;;;;;;;;;;120.61;114.10;;;;;;2672731;76;20784;-89
2023/09/05 01:43:11;;;;;;;;;;;120.61;114.10;;;;;;2672741;76;20452;-89
2023/09/05 01:46:39;;;;;;;;;;;120.61;114.10;;;;;;2672904;76;20489;-89
2023/09/05 01:50:07;;;;;;;;;;;120.61;114.10;;;;;;2672713;76;20452;-89
2023/09/05 01:53:35;;;;;;;;;;;120.61;114.10;;;;;;2672698;76;20445;-89
2023/09/05 01:57:03;;;;;;;;;;;120.61;114.10;;;;;;2673147;76;20497;-88
2023/09/05 02:00:31;;;;;;;;;;;120.61;114.10;;;;;;2672325;76;20506;-89
2023/09/05 02:03:59;;;;;;;;;;;120.61;114.10;;;;;;2672589;76;20449;-90
2023/09/05 02:07:27;;;;;;;;;;;120.61;114.10;;;;;;2672423;76;20491;-89
2023/09/05 02:10:56;;;;;;;;;;;120.61;114.10;;;;;;2672883;76;20436;-89
2023/09/05 02:14:24;;;;;;;;;;;120.61;114.10;;;;;;2673143;76;20432;-89
2023/09/05 02:17:55;;;;;;;;;;;120.61;114.10;;;;;;2672688;76;20540;-87
2023/09/05 02:21:22;;;;;;;;;;;120.61;114.10;;;;;;2672610;76;20342;-88
2023/09/05 02:24:50;;;;;;;;;;;120.61;114.10;;;;;;2673481;76;20359;-89
2023/09/05 02:28:18;;;;;;;;;;;120.61;114.10;;;;;;2673026;76;20350;-88
2023/09/05 02:31:46;;;;;;;;;;;120.61;114.10;;;;;;2672610;76;20330;-89
2023/09/05 02:35:14;;;;;;;;;;;120.61;114.10;;;;;;2673129;76;20377;-89
2023/09/05 02:38:43;;;;;;;;;;;120.61;114.10;;;;;;2672628;76;20943;-89
2023/09/05 02:42:11;;;;;;;;;;;120.61;114.10;;;;;;2672738;76;21139;-89
2023/09/05 02:45:39;;;;;;;;;;;120.61;114.10;;;;;;2673139;76;20449;-89
2023/09/05 02:49:07;;;;;;;;;;;120.61;114.10;;;;;;2672829;76;20331;-89
2023/09/05 02:52:35;;;;;;;;;;;120.61;114.10;;;;;;2672788;76;21117;-89
2023/09/05 02:56:03;;;;;;;;;;;120.61;114.10;;;;;;2673239;76;20511;-89
2023/09/05 02:59:32;;;;;;;;;;;120.61;114.10;;;;;;2672661;76;20365;-89
2023/09/05 03:03:00;;;;;;;;;;;120.61;114.10;;;;;;2672735;76;20446;-89
2023/09/05 03:06:28;;;;;;;;;;;120.61;114.10;;;;;;2673199;76;20480;-89
2023/09/05 03:09:57;;;;;;;;;;;120.61;114.10;;;;;;2672811;76;20451;-89
2023/09/05 03:13:25;;;;;;;;;;;120.61;114.10;;;;;;2673054;76;20487;-88
2023/09/05 03:16:53;;;;;;;;;;;120.61;114.10;;;;;;2673083;76;20474;-89
2023/09/05 03:20:25;;;;;;;;;;;120.61;114.10;;;;;;2673009;76;20352;-89
2023/09/05 03:23:53;;;;;;;;;;;120.61;114.10;;;;;;2672733;76;20459;-89
2023/09/05 03:27:21;;;;;;;;;;;120.61;114.10;;;;;;2673053;76;20899;-88
2023/09/05 03:30:49;;;;;;;;;;;120.61;114.10;;;;;;2673209;76;20498;-89
2023/09/05 03:34:18;;;;;;;;;;;120.61;114.10;;;;;;2673261;76;20452;-89
2023/09/05 03:37:46;;;;;;;;;;;120.61;114.10;;;;;;2673342;76;20483;-89
2023/09/05 03:41:14;;;;;;;;;;;120.61;114.10;;;;;;2673517;76;20472;-89
2023/09/05 03:44:42;;;;;;;;;;;120.61;114.10;;;;;;2673220;76;20894;-89
2023/09/05 03:48:11;;;;;;;;;;;120.61;114.10;;;;;;2673348;76;20925;-89
2023/09/05 03:51:39;;;;;;;;;;;120.61;114.10;;;;;;2673602;76;20383;-89
2023/09/05 03:55:07;;;;;;;;;;;120.61;114.10;;;;;;2673388;76;20432;-89
2023/09/05 03:58:35;;;;;;;;;;;120.61;114.10;;;;;;2672927;76;20453;-89
2023/09/05 04:02:03;;;;;;;;;;;120.61;114.10;;;;;;2673508;76;20494;-89
2023/09/05 04:05:31;;;;;;;;;;;120.61;114.10;;;;;;2673316;76;20497;-89
2023/09/05 04:08:59;;;;;;;;;;;120.61;114.10;;;;;;2673147;76;20437;-89
2023/09/05 04:12:27;;;;;;;;;;;120.61;114.10;;;;;;2673414;76;20460;-89
2023/09/05 04:15:56;;;;;;;;;;;120.61;114.10;;;;;;2673072;76;20435;-89
2023/09/05 04:19:24;;;;;;;;;;;120.61;114.10;;;;;;2673180;76;20957;-89
2023/09/05 04:22:52;;;;;;;;;;;120.61;114.10;;;;;;2673258;76;20459;-89
2023/09/05 04:26:22;;;;;;;;;;;120.61;114.10;;;;;;2673178;76;20607;-89
2023/09/05 04:29:54;;;;;;;;;;;120.61;114.10;;;;;;2673225;76;20461;-89
2023/09/05 04:33:22;;;;;;;;;;;120.61;114.10;;;;;;2673514;76;20481;-89
2023/09/05 04:36:50;;;;;;;;;;;120.61;114.10;;;;;;2673139;76;20455;-89
2023/09/05 04:40:18;;;;;;;;;;;120.61;114.10;;;;;;2673554;76;20561;-89
2023/09/05 04:43:47;;;;;;;;;;;120.61;114.10;;;;;;2673459;76;20486;-89
2023/09/05 04:47:15;;;;;;;;;;;120.61;114.10;;;;;;2673400;76;20454;-89
2023/09/05 04:50:43;;;;;;;;;;;120.61;114.10;;;;;;2673006;76;20452;-89
2023/09/05 04:54:11;;;;;;;;;;;120.61;114.10;;;;;;2672730;76;20439;-89
2023/09/05 04:57:42;;;;;;;;;;;120.61;114.10;;;;;;2672570;76;20455;-88
2023/09/05 05:01:09;;;;;;;;;;;120.61;114.10;;;;;;2672363;76;21000;-89
2023/09/05 05:04:37;;;;;;;;;;;120.61;114.10;;;;;;2673486;76;20798;-89
2023/09/05 05:08:05;;;;;;;;;;;120.61;114.10;;;;;;2672769;76;20477;-89
2023/09/05 05:11:34;;;;;;;;;;;120.61;114.10;;;;;;2673293;76;20453;-89
2023/09/05 05:15:02;;;;;;;;;;;120.61;114.10;;;;;;2673000;76;20482;-89
2023/09/05 05:18:30;;;;;;;;;;;120.61;114.10;;;;;;2673341;76;20447;-89
2023/09/05 05:21:58;;;;;;;;;;;120.61;114.10;;;;;;2672991;76;20453;-89
2023/09/05 05:25:26;;;;;;;;;;;120.61;114.10;;;;;;2673254;76;20442;-89
2023/09/05 05:28:54;;;;;;;;;;;120.61;114.10;;;;;;2672789;76;20500;-89
2023/09/05 05:32:22;;;;;;;;;;;120.61;114.10;;;;;;2673101;76;20441;-89
2023/09/05 05:35:50;;;;;;;;;;;120.61;114.10;;;;;;2673531;76;20495;-88
2023/09/05 05:39:22;;;;;;;;;;;120.61;114.10;;;;;;2672958;76;20461;-88
2023/09/05 05:42:48;;;;;;;;;;;120.61;114.10;;;;;;2673351;76;20449;-88
2023/09/05 05:46:18;;;;;;;;;;;120.61;114.10;;;;;;2672948;76;20489;-89
2023/09/05 05:49:46;;;;;;;;;;;120.61;114.10;;;;;;2673146;76;20376;-88
2023/09/05 05:53:14;;;;;;;;;;;120.61;114.10;;;;;;2672989;76;20785;-89
2023/09/05 05:56:42;;;;;;;;;;;120.61;114.10;;;;;;2672821;76;20365;-89
2023/09/05 06:00:10;;;;;;;;;;;120.61;114.10;;;;;;2672558;76;20359;-89
2023/09/05 06:03:39;;;;;;;;;;;120.61;114.10;;;;;;2673222;76;20391;-89
2023/09/05 06:07:07;;;;;;;;;;;120.61;114.10;;;;;;2673051;76;20344;-89
2023/09/05 06:10:35;;;;;;;;;;;120.61;114.10;;;;;;2672790;76;20444;-89
2023/09/05 06:14:03;;;;;;;;;;;120.61;114.10;;;;;;2672703;76;20445;-89
2023/09/05 06:17:31;;;;;;;;;;;120.61;114.10;;;;;;2673141;76;20454;-89
2023/09/05 06:21:00;;;;;;;;;;;120.61;114.10;;;;;;2673072;76;20363;-89
2023/09/05 06:24:28;;;;;;;;;;;120.61;114.10;;;;;;2672922;76;21402;-88
2023/09/05 06:27:56;;;;;;;;;;;120.61;114.10;;;;;;2672993;76;20527;-89
2023/09/05 06:31:24;;;;;;;;;;;120.61;114.10;;;;;;2673217;76;20449;-88
2023/09/05 06:34:52;;;;;;;;;;;120.61;114.10;;;;;;2673039;76;21400;-89
2023/09/05 06:38:23;;;;;;;;;;;120.61;114.10;;;;;;2672758;76;20491;-89
2023/09/05 06:41:52;;;;;;;;;;;120.61;114.10;;;;;;2672359;76;20449;-89
2023/09/05 06:45:20;;;;;;;;;;;120.61;114.10;;;;;;2673243;76;20461;-89
2023/09/05 06:48:49;;;;;;;;;;;120.61;114.10;;;;;;2672750;76;20348;-89
2023/09/05 06:52:17;;;;;;;;;;;120.61;114.10;;;;;;2672756;76;20345;-89
2023/09/05 06:55:46;;;;;;;;;;;120.61;114.10;;;;;;2673060;76;20482;-89
2023/09/05 06:59:17;;;;;;;;;;;120.61;114.10;;;;;;2672728;76;20497;-89
2023/09/05 07:02:45;;;;;;;;;;;120.61;114.10;;;;;;2672751;76;20373;-89
2023/09/05 07:06:18;;;;;;;;;;;120.61;114.10;;;;;;2672829;76;20361;-87
2023/09/05 07:09:43;;;;;;;;;;;120.61;114.10;;;;;;2672807;76;20356;-88
2023/09/05 07:13:11;;;;;;;;;;;120.61;114.10;;;;;;2673232;76;20354;-89
2023/09/05 07:16:39;;;;;;;;;;;120.61;114.10;;;;;;2673028;76;20795;-89
2023/09/05 07:20:09;;;;;;;;;;;120.61;114.10;;;;;;2673569;76;20353;-89
2023/09/05 07:23:38;;;;;;;;;;;120.61;114.10;;;;;;2673531;76;20469;-89
2023/09/05 07:27:06;;;;;;;;;;;120.61;114.10;;;;;;2673400;76;20778;-89
2023/09/05 07:30:34;;;;;;;;;;;120.61;114.10;;;;;;2673750;76;20489;-89
2023/09/05 07:34:02;;;;;;;;;;;120.61;114.10;;;;;;2673586;76;20801;-88
2023/09/05 07:37:30;;;;;;;;;;;120.61;114.10;;;;;;2673222;76;20367;-88
2023/09/05 07:40:58;;;;;;;;;;;120.61;114.10;;;;;;2673196;76;20335;-88
2023/09/05 07:44:26;;;;;;;;;;;120.61;114.10;;;;;;2673197;76;20810;-88
2023/09/05 07:47:54;;;;;;;;;;;120.61;114.10;;;;;;2673029;76;20465;-88
2023/09/05 07:51:23;;;;;;;;;;;120.61;114.10;;;;;;2672947;76;20929;-89
2023/09/05 07:54:51;;;;;;;;;;;120.61;114.10;;;;;;2673250;76;20384;-89
2023/09/05 07:58:20;;;;;;;;;;;120.61;114.10;;;;;;2672533;76;20887;-89
2023/09/05 08:01:48;;;;;;;;;;;120.61;114.10;;;;;;2672640;76;20714;-88
2023/09/05 08:05:16;;;;;;;;;;;120.61;114.10;;;;;;2672987;76;20500;-89
2023/09/05 08:08:44;;;;;;;;;;;120.61;114.10;;;;;;2672872;76;20963;-88
2023/09/05 08:12:13;;;;;;;;;;;120.61;114.10;;;;;;2673078;76;20470;-89
2023/09/05 08:15:43;;;;;;;;;;;120.61;114.10;;;;;;2673117;76;20915;-87
2023/09/05 08:19:11;;;;;;;;;;;120.61;114.10;;;;;;2673273;76;20817;-88
2023/09/05 08:22:39;;;;;;;;;;;120.61;114.10;;;;;;2672803;76;20439;-88
2023/09/05 08:26:10;;;;;;;;;;;120.61;114.10;;;;;;2673290;76;20561;-89
2023/09/05 08:29:37;;;;;;;;;;;120.61;114.10;;;;;;2673191;76;20331;-89
2023/09/05 08:33:05;;;;;;;;;;;120.61;114.10;;;;;;2673469;76;20471;-89
2023/09/05 08:36:34;;;;;;;;;;;120.61;114.10;;;;;;2673020;76;20451;-88
2023/09/05 08:40:08;;;;;;;;;;;120.61;114.10;;;;;;2672663;76;20453;-89
2023/09/05 08:43:33;;;;;;;;;;;120.61;114.10;;;;;;2673027;76;20472;-88
2023/09/05 08:47:02;;;;;;;;;;;120.61;114.10;;;;;;2672965;76;20767;-89
2023/09/05 08:50:31;;;;;;;;;;;120.61;114.10;;;;;;2672849;76;20466;-88
2023/09/05 08:53:59;;;;;;;;;;;120.61;114.10;;;;;;2672644;76;20500;-88
2023/09/05 08:57:27;;;;;;;;;;;120.61;114.10;;;;;;2672599;76;20459;-89
2023/09/05 09:00:55;;;;;;;;;;;120.61;114.10;;;;;;2672815;76;20592;-89
2023/09/05 09:04:23;;;;;;;;;;;120.61;114.10;;;;;;2670439;76;20445;-88
2023/09/05 09:07:52;;;;;;;;;;;120.61;114.10;;;;;;2668501;76;20484;-88
2023/09/05 09:11:20;;;;;;;;;;;120.61;114.10;;;;;;2669401;76;20709;-88
2023/09/05 09:14:49;;;;;;;;;;;120.61;114.10;;;;;;2670092;76;20445;-89
2023/09/05 09:18:22;;;;;;;;;;;120.61;114.10;;;;;;2670793;76;20430;-88
2023/09/05 09:21:47;;;;;;;;;;;120.61;114.10;;;;;;2671074;76;20459;-87
2023/09/05 09:25:20;;;;;;;;;;;120.61;114.10;;;;;;2670138;76;20793;-89
2023/09/05 09:28:45;;;;;;;;;;;120.61;114.10;;;;;;2670012;76;20419;-88
2023/09/05 09:32:13;;;;;;;;;;;120.61;114.10;;;;;;2670584;76;20443;-89
2023/09/05 09:35:41;;;;;;;;;;;120.61;114.10;;;;;;2670162;76;20570;-89
2023/09/05 09:39:10;;;;;;;;;;;120.61;114.10;;;;;;2670816;76;20429;-88
2023/09/05 09:42:38;;;;;;;;;;;120.61;114.10;;;;;;2671550;76;20450;-89
2023/09/05 09:46:06;;;;;;;;;;;120.61;114.10;;;;;;2670969;76;20495;-89
2023/09/05 09:49:34;;;;;;;;;;;120.61;114.10;;;;;;2670527;76;20587;-88
2023/09/05 09:53:02;;;;;;;;;;;120.61;114.10;;;;;;2671196;76;20449;-89
2023/09/05 09:56:30;;;;;;;;;;;120.61;114.10;;;;;;2670970;76;20463;-89
2023/09/05 09:59:58;;;;;;;;;;;120.61;114.10;;;;;;2671338;76;20836;-89
2023/09/05 10:03:27;;;;;;;;;;;120.61;114.10;;;;;;2671637;76;20471;-89
2023/09/05 10:06:56;;;;;;;;;;;120.61;114.10;;;;;;2670911;76;20461;-89
2023/09/05 10:10:24;;;;;;;;;;;120.61;114.10;;;;;;2671799;76;20354;-90
2023/09/05 10:13:52;;;;;;;;;;;120.61;114.10;;;;;;2671156;76;20838;-89
2023/09/05 10:17:21;;;;;;;;;;;120.61;114.10;;;;;;2670952;76;21002;-89
2023/09/05 10:20:54;;;;;;;;;;;120.61;114.10;;;;;;2670956;76;21077;-89
2023/09/05 10:24:19;;;;;;;;;;;120.61;114.10;;;;;;2670808;76;20643;-89
2023/09/05 10:27:47;;;;;;;;;;;120.61;114.10;;;;;;2671182;76;20330;-90
2023/09/05 10:31:15;;;;;;;;;;;120.61;114.10;;;;;;2671209;76;20319;-89
2023/09/05 10:34:44;;;;;;;;;;;120.61;114.10;;;;;;2671062;76;20472;-90
2023/09/05 10:38:15;;;;;;;;;;;120.61;114.10;;;;;;2671253;76;20445;-89
2023/09/05 10:41:43;;;;;;;;;;;120.61;114.10;;;;;;2671790;76;20366;-89
2023/09/05 10:45:12;;;;;;;;;;;120.61;114.10;;;;;;2671221;76;20375;-89
2023/09/05 10:48:40;;;;;;;;;;;120.61;114.10;;;;;;2671993;76;20450;-89
2023/09/05 10:52:10;;;;;;;;;;;120.61;114.10;;;;;;2671231;76;20480;-89
2023/09/05 10:55:46;;;;;;;;;;;120.61;114.10;;;;;;2671208;76;20461;-89
2023/09/05 10:59:14;;;;;;;;;;;120.61;114.10;;;;;;2671345;76;20803;-89
2023/09/05 11:02:42;;;;;;;;;;;120.61;114.10;;;;;;2671741;76;20368;-89
2023/09/05 11:06:11;;;;;;;;;;;120.61;114.10;;;;;;2672030;76;20463;-89
2023/09/05 11:09:39;;;;;;;;;;;120.61;114.10;;;;;;2671477;76;20471;-90
2023/09/05 11:13:08;;;;;;;;;;;120.61;114.10;;;;;;2671436;76;20499;-90
2023/09/05 11:16:36;;;;;;;;;;;120.61;114.10;;;;;;2671106;76;20921;-88
2023/09/05 11:20:07;;;;;;;;;;;120.61;114.10;;;;;;2670939;76;20449;-89
2023/09/05 11:23:36;;;;;;;;;;;120.61;114.10;;;;;;2671935;76;20479;-90
2023/09/05 11:27:06;;;;;;;;;;;120.61;114.10;;;;;;2671454;76;20464;-89
2023/09/05 11:30:34;;;;;;;;;;;120.61;114.10;;;;;;2671312;76;20354;-89
2023/09/05 11:34:02;;;;;;;;;;;120.61;114.10;;;;;;2671446;76;20465;-89
2023/09/05 11:37:30;;;;;;;;;;;120.61;114.10;;;;;;2670676;76;20560;-89
2023/09/05 11:40:59;;;;;;;;;;;120.61;114.10;;;;;;2672264;76;20537;-89
2023/09/05 11:44:27;;;;;;;;;;;120.61;114.10;;;;;;2671562;76;20902;-89
2023/09/05 11:47:55;;;;;;;;;;;120.61;114.10;;;;;;2671945;76;20453;-89
2023/09/05 11:51:23;;;;;;;;;;;120.61;114.10;;;;;;2671450;76;20456;-89
2023/09/05 11:54:51;;;;;;;;;;;120.61;114.10;;;;;;2671134;76;20506;-89
2023/09/05 11:58:20;;;;;;;;;;;120.61;114.10;;;;;;2671377;76;20457;-89
2023/09/05 12:01:48;;;;;;;;;;;120.61;114.10;;;;;;2671760;76;20431;-89
2023/09/05 12:05:16;;;;;;;;;;;120.61;114.10;;;;;;2670420;76;20495;-89
2023/09/05 12:08:44;;;;;;;;;;;120.61;114.10;;;;;;2669187;76;20457;-88
2023/09/05 12:12:12;;;;;;;;;;;120.61;114.10;;;;;;2670832;76;20483;-87
2023/09/05 12:15:40;;;;;;;;;;;120.61;114.10;;;;;;2671704;76;20439;-89
2023/09/05 12:19:09;;;;;;;;;;;120.61;114.10;;;;;;2670700;76;20498;-89
2023/09/05 12:22:37;;;;;;;;;;;120.61;114.10;;;;;;2670367;76;20488;-90
2023/09/05 12:26:06;;;;;;;;;;;120.61;114.10;;;;;;2670456;76;20331;-89
2023/09/05 12:29:36;;;;;;;;;;;120.61;114.10;;;;;;2670225;76;20450;-88
2023/09/05 12:33:04;;;;;;;;;;;120.61;114.10;;;;;;2671397;76;20528;-88
2023/09/05 12:36:33;;;;;;;;;;;120.61;114.10;;;;;;2671236;76;21203;-88
2023/09/05 12:40:04;;;;;;;;;;;120.61;114.10;;;;;;2669837;76;20554;-88
2023/09/05 12:43:31;;;;;;;;;;;120.61;114.10;;;;;;2669899;76;20466;-89
2023/09/05 12:46:59;;;;;;;;;;;120.61;114.10;;;;;;2671285;76;20926;-88
2023/09/05 12:50:32;;;;;;;;;;;120.61;114.10;;;;;;2671391;76;20514;-89
2023/09/05 12:54:00;;;;;;;;;;;120.61;114.10;;;;;;2669924;76;20464;-88
2023/09/05 12:57:29;;;;;;;;;;;120.61;114.10;;;;;;2667891;76;20433;-88
2023/09/05 13:00:57;;;;;;;;;;;120.61;114.10;;;;;;2670363;76;20920;-89
2023/09/05 13:04:25;;;;;;;;;;;120.61;114.10;;;;;;2670957;76;20360;-88
2023/09/05 13:07:53;;;;;;;;;;;120.61;114.10;;;;;;2670199;76;20800;-88
2023/09/05 13:11:21;;;;;;;;;;;120.61;114.10;;;;;;2671611;76;20499;-87
2023/09/05 13:14:49;;;;;;;;;;;120.61;114.10;;;;;;2670161;76;20375;-87
2023/09/05 13:18:18;;;;;;;;;;;120.61;114.10;;;;;;2670827;76;20455;-88
2023/09/05 13:21:46;;;;;;;;;;;120.61;114.10;;;;;;2670583;76;20471;-88
2023/09/05 13:25:14;;;;;;;;;;;120.61;114.10;;;;;;2670244;76;20453;-89
2023/09/05 13:28:43;;;;;;;;;;;120.61;114.10;;;;;;2669470;76;20457;-88
2023/09/05 13:32:11;;;;;;;;;;;120.61;114.10;;;;;;2670465;76;20485;-87
2023/09/05 13:35:39;;;;;;;;;;;120.61;114.10;;;;;;2670286;76;20457;-88
2023/09/05 13:39:08;;;;;;;;;;;120.61;114.10;;;;;;2670214;76;20560;-86
2023/09/05 13:42:36;;;;;;;;;;;120.61;114.10;;;;;;2671329;76;20487;-88
2023/09/05 13:46:05;;;;;;;;;;;120.61;114.10;;;;;;2670819;76;20523;-88
2023/09/05 13:49:33;;;;;;;;;;;120.61;114.10;;;;;;2669659;76;20495;-88
2023/09/05 13:53:01;;;;;;;;;;;120.61;114.10;;;;;;2671223;76;20466;-88
2023/09/05 13:56:29;;;;;;;;;;;120.61;114.10;;;;;;2669229;76;21031;-88
2023/09/05 13:59:58;;;;;;;;;;;120.61;114.10;;;;;;2667743;76;20506;-88
2023/09/05 14:03:26;;;;;;;;;;;120.61;114.10;;;;;;2669544;76;20494;-86
2023/09/05 14:06:54;;;;;;;;;;;120.61;114.10;;;;;;2667816;76;20501;-87
2023/09/05 14:10:22;;;;;;;;;;;120.61;114.10;;;;;;2668951;76;20461;-87
2023/09/05 14:13:53;;;;;;;;;;;120.61;114.10;;;;;;2669405;76;20460;-87
2023/09/05 14:17:21;;;;;;;;;;;120.61;114.10;;;;;;2669003;76;20439;-89
2023/09/05 14:20:49;;;;;;;;;;;120.61;114.10;;;;;;2669770;76;20370;-88
2023/09/05 14:24:17;;;;;;;;;;;120.61;114.10;;;;;;2669464;76;20933;-88
2023/09/05 14:27:46;;;;;;;;;;;120.61;114.10;;;;;;2668545;76;20822;-87
2023/09/05 14:31:14;;;;;;;;;;;120.61;114.10;;;;;;2670421;76;20343;-88
2023/09/05 14:34:42;;;;;;;;;;;120.61;114.10;;;;;;2670087;76;20377;-87
2023/09/05 14:38:10;;;;;;;;;;;120.61;114.10;;;;;;2669784;76;20439;-88
2023/09/05 14:41:38;;;;;;;;;;;120.61;114.10;;;;;;2670104;76;20483;-88
2023/09/05 14:45:06;;;;;;;;;;;120.61;114.10;;;;;;2670247;76;20471;-88
2023/09/05 14:48:34;;;;;;;;;;;120.61;114.10;;;;;;2669684;76;20483;-88
2023/09/05 14:52:03;;;;;;;;;;;120.61;114.10;;;;;;2669040;76;20450;-87
2023/09/05 14:55:32;;;;;;;;;;;120.61;114.10;;;;;;2669100;76;20458;-87
2023/09/05 14:59:00;;;;;;;;;;;120.61;114.10;;;;;;2669600;76;20460;-88
2023/09/05 15:02:28;;;;;;;;;;;120.61;114.10;;;;;;2669941;76;20490;-88
2023/09/05 15:05:56;;;;;;;;;;;120.61;114.10;;;;;;2669290;76;20458;-89
2023/09/05 15:09:26;;;;;;;;;;;120.61;114.10;;;;;;2667551;76;20458;-88
2023/09/05 15:12:54;;;;;;;;;;;120.61;114.10;;;;;;2668966;76;20433;-88
2023/09/05 15:16:22;;;;;;;;;;;120.61;114.10;;;;;;2667582;76;20472;-88
2023/09/05 15:19:50;;;;;;;;;;;120.61;114.10;;;;;;2668320;76;20450;-87
2023/09/05 15:23:18;;;;;;;;;;;120.61;114.10;;;;;;2667912;76;20477;-87
2023/09/05 15:26:47;;;;;;;;;;;120.61;114.10;;;;;;2667202;76;20452;-87
2023/09/05 15:30:18;;;;;;;;;;;120.61;114.10;;;;;;2666871;76;20496;-88
2023/09/05 15:33:45;;;;;;;;;;;120.61;114.10;;;;;;2668136;76;20445;-87
2023/09/05 15:37:13;;;;;;;;;;;120.61;114.10;;;;;;2668270;76;20927;-88
2023/09/05 15:40:41;;;;;;;;;;;120.61;114.10;;;;;;2668097;76;20453;-88
2023/09/05 15:44:10;;;;;;;;;;;120.61;114.10;;;;;;2667749;76;20491;-88
2023/09/05 15:47:38;;;;;;;;;;;120.61;114.10;;;;;;2668456;76;20429;-88
2023/09/05 15:51:06;;;;;;;;;;;120.61;114.10;;;;;;2668090;76;20499;-89
2023/09/05 15:54:34;;;;;;;;;;;120.61;114.10;;;;;;2667755;76;20474;-88
2023/09/05 15:58:02;;;;;;;;;;;120.61;114.10;;;;;;2668095;76;20999;-88
2023/09/05 16:01:30;;;;;;;;;;;120.61;114.10;;;;;;2666988;76;20751;-88
2023/09/05 16:04:58;;;;;;;;;;;120.61;114.10;;;;;;2668739;76;20480;-88
2023/09/05 16:08:29;;;;;;;;;;;120.61;114.10;;;;;;2670451;76;20433;-87
2023/09/05 16:11:59;;;;;;;;;;;120.61;114.10;;;;;;2666989;76;20491;-88
2023/09/05 16:15:27;;;;;;;;;;;120.61;114.10;;;;;;2669049;76;20488;-88
2023/09/05 16:18:55;;;;;;;;;;;120.61;114.10;;;;;;2671086;76;20469;-89
2023/09/05 16:22:23;;;;;;;;;;;120.61;114.10;;;;;;2672243;76;20437;-88
2023/09/05 16:25:52;;;;;;;;;;;120.61;114.10;;;;;;2671564;76;20451;-89
2023/09/05 16:29:20;;;;;;;;;;;120.61;114.10;;;;;;2670482;76;20892;-88
2023/09/05 16:32:48;;;;;;;;;;;120.61;114.10;;;;;;2671204;76;20475;-88
2023/09/05 16:36:21;;;;;;;;;;;120.61;114.10;;;;;;2671746;76;20828;-88
2023/09/05 16:39:46;;;;;;;;;;;120.61;114.10;;;;;;2671718;76;20522;-87
2023/09/05 16:43:16;;;;;;;;;;;120.61;114.10;;;;;;2671436;76;20439;-88
2023/09/05 16:46:45;;;;;;;;;;;120.61;114.10;;;;;;2671932;76;21693;-88
2023/09/05 16:50:13;;;;;;;;;;;120.61;114.10;;;;;;2671724;76;20443;-88
2023/09/05 16:53:41;;;;;;;;;;;120.61;114.10;;;;;;2671749;76;20462;-87
2023/09/05 16:57:09;;;;;;;;;;;120.61;114.10;;;;;;2671206;76;20473;-88
2023/09/05 17:00:38;;;;;;;;;;;120.61;114.10;;;;;;2671717;76;20456;-88
2023/09/05 17:04:06;;;;;;;;;;;120.61;114.10;;;;;;2672021;76;20351;-88
2023/09/05 17:07:34;;;;;;;;;;;120.61;114.10;;;;;;2671764;76;20362;-87
2023/09/05 17:11:02;;;;;;;;;;;120.61;114.10;;;;;;2670172;76;20428;-88
2023/09/05 17:14:30;;;;;;;;;;;120.61;114.10;;;;;;2669820;76;20902;-88
2023/09/05 17:17:58;;;;;;;;;;;120.61;114.10;;;;;;2669927;76;20481;-87
2023/09/05 17:21:26;;;;;;;;;;;120.61;114.10;;;;;;2670281;76;20936;-87
2023/09/05 17:24:55;;;;;;;;;;;120.61;114.10;;;;;;2669780;76;20900;-88
2023/09/05 17:28:23;;;;;;;;;;;120.61;114.10;;;;;;2670990;76;20456;-86
2023/09/05 17:31:52;;;;;;;;;;;120.61;114.10;;;;;;2671210;76;20430;-88
2023/09/05 17:35:20;;;;;;;;;;;120.61;114.10;;;;;;2671602;76;20433;-88
2023/09/05 17:38:48;;;;;;;;;;;120.61;114.10;;;;;;2671558;76;20490;-88
2023/09/05 17:42:17;;;;;;;;;;;120.61;114.10;;;;;;2672335;76;20447;-88
2023/09/05 17:45:45;;;;;;;;;;;120.61;114.10;;;;;;2671288;76;20900;-87
2023/09/05 17:49:14;;;;;;;;;;;120.61;114.10;;;;;;2671680;76;20503;-87
2023/09/05 17:52:42;;;;;;;;;;;120.61;114.10;;;;;;2672383;76;20442;-87
2023/09/05 17:56:10;;;;;;;;;;;120.61;114.10;;;;;;2670526;76;20492;-88
2023/09/05 17:59:41;;;;;;;;;;;120.61;114.10;;;;;;2669239;76;20491;-87
2023/09/05 18:03:10;;;;;;;;;;;120.61;114.10;;;;;;2669762;76;20471;-87
2023/09/05 18:06:38;;;;;;;;;;;120.61;114.10;;;;;;2669220;76;20445;-87
2023/09/05 18:10:06;;;;;;;;;;;120.61;114.10;;;;;;2668799;76;20451;-88
2023/09/05 18:13:34;;;;;;;;;;;120.61;114.10;;;;;;2670089;76;20456;-87
2023/09/05 18:17:03;;;;;;;;;;;120.61;114.10;;;;;;2669933;76;20389;-86
2023/09/05 18:20:31;;;;;;;;;;;120.61;114.10;;;;;;2670578;76;20471;-87
2023/09/05 18:23:59;;;;;;;;;;;120.61;114.10;;;;;;2670324;76;20465;-87
2023/09/05 18:27:27;;;;;;;;;;;120.61;114.10;;;;;;2670186;76;21004;-88
2023/09/05 18:30:55;;;;;;;;;;;120.61;114.10;;;;;;2669578;76;20386;-87
2023/09/05 18:34:23;;;;;;;;;;;120.61;114.10;;;;;;2669553;76;20684;-87
2023/09/05 18:37:51;;;;;;;;;;;120.61;114.10;;;;;;2670000;76;20360;-87
2023/09/05 18:41:25;;;;;;;;;;;120.61;114.10;;;;;;2669465;76;20601;-87
2023/09/05 18:44:50;;;;;;;;;;;120.61;114.10;;;;;;2670899;76;20439;-87
2023/09/05 18:48:18;;;;;;;;;;;120.61;114.10;;;;;;2671265;76;20328;-87
2023/09/05 18:51:46;;;;;;;;;;;120.61;114.10;;;;;;2669197;76;20480;-86
2023/09/05 18:55:14;;;;;;;;;;;120.61;114.10;;;;;;2667623;76;20447;-87
2023/09/05 18:58:42;;;;;;;;;;;120.61;114.10;;;;;;2668400;76;20429;-87
2023/09/05 19:02:10;;;;;;;;;;;120.61;114.10;;;;;;2668512;76;20448;-86
2023/09/05 19:05:38;;;;;;;;;;;120.61;114.10;;;;;;2669080;76;20429;-88
2023/09/05 19:09:07;;;;;;;;;;;120.61;114.10;;;;;;2670661;76;20459;-88
2023/09/05 19:12:35;;;;;;;;;;;120.61;114.10;;;;;;2670126;76;20510;-88
2023/09/05 19:16:06;;;;;;;;;;;120.61;114.10;;;;;;2669558;76;20931;-87
2023/09/05 19:19:34;;;;;;;;;;;120.61;114.10;;;;;;2667820;76;20449;-88
2023/09/05 19:23:02;;;;;;;;;;;120.61;114.10;;;;;;2668966;76;20459;-88
2023/09/05 19:26:31;;;;;;;;;;;120.61;114.10;;;;;;2668411;76;21385;-88
2023/09/05 19:29:59;;;;;;;;;;;120.61;114.10;;;;;;2669752;76;20983;-88
2023/09/05 19:33:27;;;;;;;;;;;120.61;114.10;;;;;;2669920;76;20558;-87
2023/09/05 19:36:55;;;;;;;;;;;120.61;114.10;;;;;;2668157;76;20461;-87